sensor_id;sensor_type;location;lat;lon;timestamp;pressure;altitude;pressure_sealevel;temperature;humidity
83104;BME280;72975;48.134;11.630;2023-12-20T00:00:27;95524.06;;;6.43;47.63
83104;BME280;72975;48.134;11.630;2023-12-20T00:02:54;95522.66;;;6.52;47.79
83104;BME280;72975;48.134;11.630;2023-12-20T00:05:22;95522.97;;;6.56;47.69
83104;BME280;72975;48.134;11.630;2023-12-20T00:07:49;95519.50;;;6.50;48.11
83104;BME280;72975;48.134;11.630;2023-12-20T00:10:17;95513.31;;;6.51;47.88
83104;BME280;72975;48.134;11.630;2023-12-20T00:12:45;95509.00;;;6.40;48.86
83104;BME280;72975;48.134;11.630;2023-12-20T00:15:13;95503.50;;;6.37;48.55
83104;BME280;72975;48.134;11.630;2023-12-20T00:17:42;95505.25;;;6.48;48.74
83104;BME280;72975;48.134;11.630;2023-12-20T00:20:11;95493.91;;;6.54;48.46
83104;BME280;72975;48.134;11.630;2023-12-20T00:22:41;95508.22;;;6.40;49.04
83104;BME280;72975;48.134;11.630;2023-12-20T00:25:08;95505.38;;;6.41;49.10
83104;BME280;72975;48.134;11.630;2023-12-20T00:27:36;95505.53;;;6.51;49.06
83104;BME280;72975;48.134;11.630;2023-12-20T00:30:04;95486.53;;;6.46;49.12
83104;BME280;72975;48.134;11.630;2023-12-20T00:32:32;95480.00;;;6.43;48.88
83104;BME280;72975;48.134;11.630;2023-12-20T00:35:00;95479.94;;;6.38;48.95
83104;BME280;72975;48.134;11.630;2023-12-20T00:37:35;95480.00;;;6.43;48.51
83104;BME280;72975;48.134;11.630;2023-12-20T00:40:06;95477.66;;;6.58;47.77
83104;BME280;72975;48.134;11.630;2023-12-20T00:42:34;95466.63;;;6.51;47.85
83104;BME280;72975;48.134;11.630;2023-12-20T00:45:01;95466.25;;;6.59;46.83
83104;BME280;72975;48.134;11.630;2023-12-20T00:47:30;95460.88;;;6.66;46.35
83104;BME280;72975;48.134;11.630;2023-12-20T00:50:06;95464.72;;;6.64;46.34
83104;BME280;72975;48.134;11.630;2023-12-20T00:52:34;95465.84;;;6.68;45.82
83104;BME280;72975;48.134;11.630;2023-12-20T00:55:01;95460.22;;;6.76;45.23
83104;BME280;72975;48.134;11.630;2023-12-20T00:57:29;95453.78;;;6.78;44.88
83104;BME280;72975;48.134;11.630;2023-12-20T00:59:58;95461.81;;;6.77;45.01
83104;BME280;72975;48.134;11.630;2023-12-20T01:02:26;95468.25;;;6.74;44.77
83104;BME280;72975;48.134;11.630;2023-12-20T01:04:53;95454.06;;;6.82;44.75
83104;BME280;72975;48.134;11.630;2023-12-20T01:07:23;95440.16;;;6.88;44.37
83104;BME280;72975;48.134;11.630;2023-12-20T01:09:54;95443.97;;;6.80;44.59
83104;BME280;72975;48.134;11.630;2023-12-20T01:12:21;95433.09;;;6.83;44.39
83104;BME280;72975;48.134;11.630;2023-12-20T01:14:49;95424.34;;;6.89;44.31
83104;BME280;72975;48.134;11.630;2023-12-20T01:17:17;95419.63;;;6.86;44.49
83104;BME280;72975;48.134;11.630;2023-12-20T01:19:44;95427.66;;;6.85;44.75
83104;BME280;72975;48.134;11.630;2023-12-20T01:22:12;95432.13;;;6.89;45.04
83104;BME280;72975;48.134;11.630;2023-12-20T01:24:39;95423.00;;;6.87;45.17
83104;BME280;72975;48.134;11.630;2023-12-20T01:27:11;95422.47;;;6.85;45.40
83104;BME280;72975;48.134;11.630;2023-12-20T01:29:39;95421.91;;;6.83;45.66
83104;BME280;72975;48.134;11.630;2023-12-20T01:32:07;95419.94;;;6.90;45.63
83104;BME280;72975;48.134;11.630;2023-12-20T01:34:34;95414.44;;;6.86;46.17
83104;BME280;72975;48.134;11.630;2023-12-20T01:37:02;95407.69;;;6.85;46.59
83104;BME280;72975;48.134;11.630;2023-12-20T01:39:32;95402.19;;;6.82;46.94
83104;BME280;72975;48.134;11.630;2023-12-20T01:42:00;95407.75;;;6.90;46.81
83104;BME280;72975;48.134;11.630;2023-12-20T01:44:28;95415.44;;;6.80;47.45
83104;BME280;72975;48.134;11.630;2023-12-20T01:46:55;95413.66;;;6.86;47.72
83104;BME280;72975;48.134;11.630;2023-12-20T01:49:23;95404.84;;;6.87;47.82
83104;BME280;72975;48.134;11.630;2023-12-20T01:51:53;95403.28;;;6.86;47.91
83104;BME280;72975;48.134;11.630;2023-12-20T01:54:22;95396.53;;;6.85;47.58
83104;BME280;72975;48.134;11.630;2023-12-20T01:56:51;95385.88;;;6.81;47.96
83104;BME280;72975;48.134;11.630;2023-12-20T01:59:21;95390.00;;;6.82;47.57
83104;BME280;72975;48.134;11.630;2023-12-20T02:01:49;95383.41;;;6.91;47.41
83104;BME280;72975;48.134;11.630;2023-12-20T02:04:17;95377.16;;;6.92;46.97
83104;BME280;72975;48.134;11.630;2023-12-20T02:06:52;95375.31;;;6.88;47.07
83104;BME280;72975;48.134;11.630;2023-12-20T02:09:23;95365.72;;;6.88;47.31
83104;BME280;72975;48.134;11.630;2023-12-20T02:11:50;95361.06;;;6.90;46.98
83104;BME280;72975;48.134;11.630;2023-12-20T02:14:18;95352.19;;;6.86;46.96
83104;BME280;72975;48.134;11.630;2023-12-20T02:16:46;95353.28;;;6.90;47.23
83104;BME280;72975;48.134;11.630;2023-12-20T02:19:22;95343.72;;;6.96;46.75
83104;BME280;72975;48.134;11.630;2023-12-20T02:21:49;95286.84;;;6.63;46.81
83104;BME280;72975;48.134;11.630;2023-12-20T02:24:19;95340.66;;;6.99;47.32
83104;BME280;72975;48.134;11.630;2023-12-20T02:26:47;95343.25;;;6.99;47.22
83104;BME280;72975;48.134;11.630;2023-12-20T02:29:17;95351.38;;;7.08;46.99
83104;BME280;72975;48.134;11.630;2023-12-20T02:31:44;95362.53;;;7.08;47.13
83104;BME280;72975;48.134;11.630;2023-12-20T02:34:12;95355.53;;;7.09;47.49
83104;BME280;72975;48.134;11.630;2023-12-20T02:36:41;95350.91;;;7.11;47.41
83104;BME280;72975;48.134;11.630;2023-12-20T02:39:08;95352.22;;;7.13;47.82
83104;BME280;72975;48.134;11.630;2023-12-20T02:41:38;95346.53;;;7.16;47.84
83104;BME280;72975;48.134;11.630;2023-12-20T02:44:07;95344.91;;;7.10;48.10
83104;BME280;72975;48.134;11.630;2023-12-20T02:46:55;95336.69;;;7.18;48.19
83104;BME280;72975;48.134;11.630;2023-12-20T02:49:23;95330.94;;;7.16;48.74
83104;BME280;72975;48.134;11.630;2023-12-20T02:51:53;95330.69;;;7.13;48.95
83104;BME280;72975;48.134;11.630;2023-12-20T02:54:21;95315.94;;;7.18;48.80
83104;BME280;72975;48.134;11.630;2023-12-20T02:56:51;95314.66;;;7.21;49.05
83104;BME280;72975;48.134;11.630;2023-12-20T02:59:23;95321.41;;;7.22;49.21
83104;BME280;72975;48.134;11.630;2023-12-20T03:01:53;95319.09;;;7.25;49.10
83104;BME280;72975;48.134;11.630;2023-12-20T03:04:20;95330.16;;;7.16;49.56
83104;BME280;72975;48.134;11.630;2023-12-20T03:06:51;95328.44;;;7.26;49.17
83104;BME280;72975;48.134;11.630;2023-12-20T03:09:18;95328.97;;;7.28;49.35
83104;BME280;72975;48.134;11.630;2023-12-20T03:11:46;95300.22;;;7.03;49.67
83104;BME280;72975;48.134;11.630;2023-12-20T03:14:14;95336.22;;;7.26;49.61
83104;BME280;72975;48.134;11.630;2023-12-20T03:16:50;95337.78;;;7.22;50.06
83104;BME280;72975;48.134;11.630;2023-12-20T03:19:19;95331.00;;;7.21;50.76
83104;BME280;72975;48.134;11.630;2023-12-20T03:21:47;95324.72;;;7.17;50.99
83104;BME280;72975;48.134;11.630;2023-12-20T03:24:17;95332.03;;;7.20;51.06
83104;BME280;72975;48.134;11.630;2023-12-20T03:26:44;95324.72;;;7.17;51.66
83104;BME280;72975;48.134;11.630;2023-12-20T03:29:13;95333.59;;;7.21;51.96
83104;BME280;72975;48.134;11.630;2023-12-20T03:31:43;95337.53;;;7.24;52.27
83104;BME280;72975;48.134;11.630;2023-12-20T03:34:11;95338.78;;;7.21;52.33
83104;BME280;72975;48.134;11.630;2023-12-20T03:36:39;95336.13;;;7.16;53.88
83104;BME280;72975;48.134;11.630;2023-12-20T03:39:07;95337.84;;;7.06;54.53
83104;BME280;72975;48.134;11.630;2023-12-20T03:41:35;95346.75;;;7.15;54.80
83104;BME280;72975;48.134;11.630;2023-12-20T03:44:02;95343.44;;;7.19;54.89
83104;BME280;72975;48.134;11.630;2023-12-20T03:46:32;95357.69;;;7.17;55.16
83104;BME280;72975;48.134;11.630;2023-12-20T03:49:02;95361.03;;;7.12;56.19
83104;BME280;72975;48.134;11.630;2023-12-20T03:51:33;95358.47;;;7.17;56.35
83104;BME280;72975;48.134;11.630;2023-12-20T03:54:01;95364.09;;;7.09;57.07
83104;BME280;72975;48.134;11.630;2023-12-20T03:56:36;95363.81;;;7.06;58.74
83104;BME280;72975;48.134;11.630;2023-12-20T03:59:04;95370.22;;;6.98;59.52
83104;BME280;72975;48.134;11.630;2023-12-20T04:01:33;95372.56;;;7.00;60.01
83104;BME280;72975;48.134;11.630;2023-12-20T04:04:00;95372.63;;;7.05;60.05
83104;BME280;72975;48.134;11.630;2023-12-20T04:06:28;95381.38;;;6.99;61.13
83104;BME280;72975;48.134;11.630;2023-12-20T04:08:56;95376.41;;;6.92;61.80
83104;BME280;72975;48.134;11.630;2023-12-20T04:11:24;95376.69;;;6.95;61.88
83104;BME280;72975;48.134;11.630;2023-12-20T04:13:51;95378.44;;;6.90;62.55
83104;BME280;72975;48.134;11.630;2023-12-20T04:16:19;95376.56;;;6.85;62.78
83104;BME280;72975;48.134;11.630;2023-12-20T04:18:48;95381.28;;;6.88;63.14
83104;BME280;72975;48.134;11.630;2023-12-20T04:21:16;95388.63;;;6.75;63.84
83104;BME280;72975;48.134;11.630;2023-12-20T04:23:46;95383.41;;;6.70;64.80
83104;BME280;72975;48.134;11.630;2023-12-20T04:26:17;95372.91;;;6.81;64.32
83104;BME280;72975;48.134;11.630;2023-12-20T04:28:45;95374.78;;;6.64;65.57
83104;BME280;72975;48.134;11.630;2023-12-20T04:31:12;95326.88;;;6.28;66.17
83104;BME280;72975;48.134;11.630;2023-12-20T04:33:42;95375.56;;;6.65;66.21
83104;BME280;72975;48.134;11.630;2023-12-20T04:36:13;95372.97;;;6.43;67.61
83104;BME280;72975;48.134;11.630;2023-12-20T04:38:40;95323.69;;;6.21;67.14
83104;BME280;72975;48.134;11.630;2023-12-20T04:41:08;95364.63;;;6.63;66.64
83104;BME280;72975;48.134;11.630;2023-12-20T04:43:35;95379.72;;;6.44;68.04
83104;BME280;72975;48.134;11.630;2023-12-20T04:46:03;95389.38;;;6.48;67.92
83104;BME280;72975;48.134;11.630;2023-12-20T04:48:31;95392.91;;;6.42;68.54
83104;BME280;72975;48.134;11.630;2023-12-20T04:51:02;95386.28;;;6.51;68.13
83104;BME280;72975;48.134;11.630;2023-12-20T04:53:29;95392.44;;;6.45;68.66
83104;BME280;72975;48.134;11.630;2023-12-20T04:55:57;95397.94;;;6.49;68.64
83104;BME280;72975;48.134;11.630;2023-12-20T04:58:25;95407.63;;;6.37;69.44
83104;BME280;72975;48.134;11.630;2023-12-20T05:00:55;95423.53;;;6.45;69.19
83104;BME280;72975;48.134;11.630;2023-12-20T05:03:23;95409.94;;;6.38;70.23
83104;BME280;72975;48.134;11.630;2023-12-20T05:05:51;95420.25;;;6.33;70.95
83104;BME280;72975;48.134;11.630;2023-12-20T05:08:18;95417.34;;;6.30;71.45
83104;BME280;72975;48.134;11.630;2023-12-20T05:10:48;95424.47;;;6.39;71.07
83104;BME280;72975;48.134;11.630;2023-12-20T05:13:16;95439.25;;;6.39;71.89
83104;BME280;72975;48.134;11.630;2023-12-20T05:15:44;95431.28;;;6.07;73.30
83104;BME280;72975;48.134;11.630;2023-12-20T05:18:14;95437.06;;;6.31;72.90
83104;BME280;72975;48.134;11.630;2023-12-20T05:20:41;95430.91;;;6.15;73.36
83104;BME280;72975;48.134;11.630;2023-12-20T05:23:09;95443.94;;;6.03;74.54
83104;BME280;72975;48.134;11.630;2023-12-20T05:25:37;95432.41;;;5.94;75.29
83104;BME280;72975;48.134;11.630;2023-12-20T05:28:05;95436.34;;;5.85;75.70
83104;BME280;72975;48.134;11.630;2023-12-20T05:30:32;95434.44;;;5.92;76.13
83104;BME280;72975;48.134;11.630;2023-12-20T05:33:00;95447.81;;;5.72;76.93
83104;BME280;72975;48.134;11.630;2023-12-20T05:35:28;95456.84;;;5.70;77.15
83104;BME280;72975;48.134;11.630;2023-12-20T05:38:00;95450.88;;;5.69;77.70
83104;BME280;72975;48.134;11.630;2023-12-20T05:40:28;95449.34;;;5.57;78.63
83104;BME280;72975;48.134;11.630;2023-12-20T05:42:56;95454.06;;;5.60;78.68
83104;BME280;72975;48.134;11.630;2023-12-20T05:45:24;95459.47;;;5.58;78.28
83104;BME280;72975;48.134;11.630;2023-12-20T05:47:56;95475.78;;;5.59;77.95
83104;BME280;72975;48.134;11.630;2023-12-20T05:50:24;95474.72;;;5.43;78.65
83104;BME280;72975;48.134;11.630;2023-12-20T05:52:51;95462.16;;;5.35;78.01
83104;BME280;72975;48.134;11.630;2023-12-20T05:55:19;95474.72;;;5.43;78.37
83104;BME280;72975;48.134;11.630;2023-12-20T05:57:54;95485.78;;;5.38;77.76
83104;BME280;72975;48.134;11.630;2023-12-20T06:00:35;95484.06;;;5.44;76.91
83104;BME280;72975;48.134;11.630;2023-12-20T06:03:07;95489.50;;;5.31;77.33
83104;BME280;72975;48.134;11.630;2023-12-20T06:05:35;95481.13;;;5.24;77.43
83104;BME280;72975;48.134;11.630;2023-12-20T06:08:03;95495.81;;;5.35;77.68
83104;BME280;72975;48.134;11.630;2023-12-20T06:10:30;95498.34;;;5.46;77.44
83104;BME280;72975;48.134;11.630;2023-12-20T06:12:58;95496.63;;;5.52;77.28
83104;BME280;72975;48.134;11.630;2023-12-20T06:15:27;95499.38;;;5.45;77.64
83104;BME280;72975;48.134;11.630;2023-12-20T06:17:55;95502.78;;;5.63;77.57
83104;BME280;72975;48.134;11.630;2023-12-20T06:20:22;95503.53;;;5.46;78.17
83104;BME280;72975;48.134;11.630;2023-12-20T06:22:50;95502.63;;;5.12;77.63
83104;BME280;72975;48.134;11.630;2023-12-20T06:25:17;95522.31;;;5.13;77.63
83104;BME280;72975;48.134;11.630;2023-12-20T06:27:46;95516.47;;;5.18;77.93
83104;BME280;72975;48.134;11.630;2023-12-20T06:30:22;95521.88;;;5.05;78.22
83104;BME280;72975;48.134;11.630;2023-12-20T06:32:55;95527.50;;;5.02;78.18
83104;BME280;72975;48.134;11.630;2023-12-20T06:35:27;95524.91;;;5.02;78.33
83104;BME280;72975;48.134;11.630;2023-12-20T06:38:03;95523.91;;;5.03;77.92
83104;BME280;72975;48.134;11.630;2023-12-20T06:40:35;95536.63;;;4.93;78.17
83104;BME280;72975;48.134;11.630;2023-12-20T06:43:06;95555.06;;;4.96;78.49
83104;BME280;72975;48.134;11.630;2023-12-20T06:45:49;95553.72;;;4.82;78.40
83104;BME280;72975;48.134;11.630;2023-12-20T06:48:32;95541.25;;;4.79;79.77
83104;BME280;72975;48.134;11.630;2023-12-20T06:51:05;95548.44;;;4.77;79.64
83104;BME280;72975;48.134;11.630;2023-12-20T06:53:34;95549.13;;;4.84;79.23
83104;BME280;72975;48.134;11.630;2023-12-20T06:56:10;95558.31;;;4.80;78.76
83104;BME280;72975;48.134;11.630;2023-12-20T06:58:48;95563.16;;;4.88;79.01
83104;BME280;72975;48.134;11.630;2023-12-20T07:01:22;95506.75;;;4.27;79.71
83104;BME280;72975;48.134;11.630;2023-12-20T07:04:10;95556.75;;;4.79;79.10
83104;BME280;72975;48.134;11.630;2023-12-20T07:06:39;95557.75;;;4.66;79.46
83104;BME280;72975;48.134;11.630;2023-12-20T07:09:12;95561.69;;;4.69;79.30
83104;BME280;72975;48.134;11.630;2023-12-20T07:11:40;95570.03;;;4.71;79.00
83104;BME280;72975;48.134;11.630;2023-12-20T07:14:10;95568.88;;;4.67;79.58
83104;BME280;72975;48.134;11.630;2023-12-20T07:16:41;95579.34;;;4.72;79.21
83104;BME280;72975;48.134;11.630;2023-12-20T07:19:11;95592.59;;;4.52;79.89
83104;BME280;72975;48.134;11.630;2023-12-20T07:21:41;95597.00;;;4.75;79.11
83104;BME280;72975;48.134;11.630;2023-12-20T07:24:22;95584.06;;;4.52;79.92
83104;BME280;72975;48.134;11.630;2023-12-20T07:26:50;95601.94;;;4.53;80.24
83104;BME280;72975;48.134;11.630;2023-12-20T07:29:18;95595.41;;;4.62;79.25
83104;BME280;72975;48.134;11.630;2023-12-20T07:31:53;95599.22;;;4.60;79.74
83104;BME280;72975;48.134;11.630;2023-12-20T07:34:23;95599.69;;;4.68;79.48
83104;BME280;72975;48.134;11.630;2023-12-20T07:36:51;95604.75;;;4.52;80.05
83104;BME280;72975;48.134;11.630;2023-12-20T07:39:21;95606.31;;;4.53;80.09
83104;BME280;72975;48.134;11.630;2023-12-20T07:41:49;95610.47;;;4.54;79.83
83104;BME280;72975;48.134;11.630;2023-12-20T07:44:21;95608.31;;;4.51;79.66
83104;BME280;72975;48.134;11.630;2023-12-20T07:46:51;95602.03;;;4.58;79.36
83104;BME280;72975;48.134;11.630;2023-12-20T07:49:22;95607.78;;;4.60;79.12
83104;BME280;72975;48.134;11.630;2023-12-20T07:51:50;95604.84;;;4.57;78.73
83104;BME280;72975;48.134;11.630;2023-12-20T07:54:17;95611.00;;;4.56;79.24
83104;BME280;72975;48.134;11.630;2023-12-20T07:56:47;95612.16;;;4.60;78.96
83104;BME280;72975;48.134;11.630;2023-12-20T07:59:15;95614.53;;;4.61;79.25
83104;BME280;72975;48.134;11.630;2023-12-20T08:01:57;95604.41;;;4.60;79.27
83104;BME280;72975;48.134;11.630;2023-12-20T08:04:25;95607.78;;;4.60;79.31
83104;BME280;72975;48.134;11.630;2023-12-20T08:06:52;95615.28;;;4.50;79.53
83104;BME280;72975;48.134;11.630;2023-12-20T08:09:22;95611.00;;;4.44;79.23
83104;BME280;72975;48.134;11.630;2023-12-20T08:11:52;95625.97;;;4.54;79.00
83104;BME280;72975;48.134;11.630;2023-12-20T08:14:20;95628.78;;;4.52;79.15
83104;BME280;72975;48.134;11.630;2023-12-20T08:16:48;95626.06;;;4.47;79.48
83104;BME280;72975;48.134;11.630;2023-12-20T08:19:15;95634.06;;;4.57;79.16
83104;BME280;72975;48.134;11.630;2023-12-20T08:21:43;95629.63;;;4.34;79.54
83104;BME280;72975;48.134;11.630;2023-12-20T08:24:13;95630.88;;;4.44;79.87
83104;BME280;72975;48.134;11.630;2023-12-20T08:26:42;95625.47;;;4.33;80.32
83104;BME280;72975;48.134;11.630;2023-12-20T08:29:12;95638.09;;;4.42;80.36
83104;BME280;72975;48.134;11.630;2023-12-20T08:31:42;95627.41;;;4.38;80.85
83104;BME280;72975;48.134;11.630;2023-12-20T08:34:22;95633.81;;;4.47;80.35
83104;BME280;72975;48.134;11.630;2023-12-20T08:36:51;95628.53;;;4.42;80.49
83104;BME280;72975;48.134;11.630;2023-12-20T08:39:31;95628.53;;;4.42;80.33
83104;BME280;72975;48.134;11.630;2023-12-20T08:42:04;95639.41;;;4.44;80.75
83104;BME280;72975;48.134;11.630;2023-12-20T08:44:31;95633.72;;;4.42;80.56
83104;BME280;72975;48.134;11.630;2023-12-20T08:47:03;95630.00;;;4.50;80.48
83104;BME280;72975;48.134;11.630;2023-12-20T08:49:33;95628.72;;;4.29;80.61
83104;BME280;72975;48.134;11.630;2023-12-20T08:52:01;95623.34;;;4.30;80.60
83104;BME280;72975;48.134;11.630;2023-12-20T08:54:29;95631.19;;;4.35;80.39
83104;BME280;72975;48.134;11.630;2023-12-20T08:56:56;95633.03;;;4.47;80.18
83104;BME280;72975;48.134;11.630;2023-12-20T08:59:26;95623.47;;;4.47;80.09
83104;BME280;72975;48.134;11.630;2023-12-20T09:01:56;95636.63;;;4.57;80.00
83104;BME280;72975;48.134;11.630;2023-12-20T09:04:26;95631.81;;;4.61;79.18
83104;BME280;72975;48.134;11.630;2023-12-20T09:06:59;95634.06;;;4.57;79.84
83104;BME280;72975;48.134;11.630;2023-12-20T09:09:28;95642.94;;;4.50;79.51
83104;BME280;72975;48.134;11.630;2023-12-20T09:11:58;95626.53;;;4.56;79.94
83104;BME280;72975;48.134;11.630;2023-12-20T09:14:27;95632.97;;;4.65;79.48
83104;BME280;72975;48.134;11.630;2023-12-20T09:16:55;95637.09;;;4.66;79.62
83104;BME280;72975;48.134;11.630;2023-12-20T09:19:34;95628.81;;;4.64;79.92
83104;BME280;72975;48.134;11.630;2023-12-20T09:22:05;95635.41;;;4.60;80.31
83104;BME280;72975;48.134;11.630;2023-12-20T09:24:33;95627.00;;;4.64;79.95
83104;BME280;72975;48.134;11.630;2023-12-20T09:27:04;95623.66;;;4.75;79.41
83104;BME280;72975;48.134;11.630;2023-12-20T09:29:39;95633.19;;;4.63;80.36
83104;BME280;72975;48.134;11.630;2023-12-20T09:32:31;95632.28;;;4.69;79.90
83104;BME280;72975;48.134;11.630;2023-12-20T09:34:59;95641.38;;;4.72;79.70
83104;BME280;72975;48.134;11.630;2023-12-20T09:37:28;95644.56;;;4.86;79.74
83104;BME280;72975;48.134;11.630;2023-12-20T09:39:57;95642.72;;;4.63;80.24
83104;BME280;72975;48.134;11.630;2023-12-20T09:42:45;95634.53;;;4.77;79.41
83104;BME280;72975;48.134;11.630;2023-12-20T09:45:20;95639.38;;;4.74;79.89
83104;BME280;72975;48.134;11.630;2023-12-20T09:47:52;95643.06;;;4.66;80.10
83104;BME280;72975;48.134;11.630;2023-12-20T09:50:22;95639.13;;;4.64;80.22
83104;BME280;72975;48.134;11.630;2023-12-20T09:52:53;95641.72;;;4.64;79.64
83104;BME280;72975;48.134;11.630;2023-12-20T09:55:25;95630.63;;;4.75;79.60
83104;BME280;72975;48.134;11.630;2023-12-20T09:58:02;95621.84;;;4.64;80.13
83104;BME280;72975;48.134;11.630;2023-12-20T10:00:31;95637.13;;;4.89;79.54
83104;BME280;72975;48.134;11.630;2023-12-20T10:02:59;95629.25;;;4.72;79.72
83104;BME280;72975;48.134;11.630;2023-12-20T10:05:32;95628.13;;;4.68;79.92
83104;BME280;72975;48.134;11.630;2023-12-20T10:08:05;95609.56;;;4.60;80.15
83104;BME280;72975;48.134;11.630;2023-12-20T10:10:33;95609.38;;;4.73;80.09
83104;BME280;72975;48.134;11.630;2023-12-20T10:13:12;95608.47;;;4.79;79.73
83104;BME280;72975;48.134;11.630;2023-12-20T10:15:43;95614.63;;;4.78;79.95
83104;BME280;72975;48.134;11.630;2023-12-20T10:18:12;95611.84;;;4.91;79.64
83104;BME280;72975;48.134;11.630;2023-12-20T10:20:41;95613.75;;;4.84;79.95
83104;BME280;72975;48.134;11.630;2023-12-20T10:23:11;95612.28;;;4.88;79.42
83104;BME280;72975;48.134;11.630;2023-12-20T10:25:39;95609.59;;;4.95;79.73
83104;BME280;72975;48.134;11.630;2023-12-20T10:28:20;95606.88;;;5.01;79.61
83104;BME280;72975;48.134;11.630;2023-12-20T10:30:55;95611.63;;;4.93;79.96
83104;BME280;72975;48.134;11.630;2023-12-20T10:33:27;95618.47;;;4.87;79.63
83104;BME280;72975;48.134;11.630;2023-12-20T10:36:03;95617.22;;;4.90;79.48
83104;BME280;72975;48.134;11.630;2023-12-20T10:38:31;95603.19;;;4.97;79.44
83104;BME280;72975;48.134;11.630;2023-12-20T10:41:00;95609.25;;;5.03;79.48
83104;BME280;72975;48.134;11.630;2023-12-20T10:43:33;95617.91;;;4.97;79.68
83104;BME280;72975;48.134;11.630;2023-12-20T10:46:05;95601.94;;;4.88;80.44
83104;BME280;72975;48.134;11.630;2023-12-20T10:48:36;95593.59;;;4.98;80.09
83104;BME280;72975;48.134;11.630;2023-12-20T10:51:13;95600.13;;;5.00;80.11
83104;BME280;72975;48.134;11.630;2023-12-20T10:53:59;95589.69;;;4.95;80.01
83104;BME280;72975;48.134;11.630;2023-12-20T10:56:32;95595.44;;;4.97;80.13
83104;BME280;72975;48.134;11.630;2023-12-20T10:59:03;95602.41;;;4.97;79.79
83104;BME280;72975;48.134;11.630;2023-12-20T11:01:33;95594.31;;;4.93;79.60
83104;BME280;72975;48.134;11.630;2023-12-20T11:04:02;95586.53;;;5.05;79.96
83104;BME280;72975;48.134;11.630;2023-12-20T11:06:56;95591.16;;;4.91;80.16
83104;BME280;72975;48.134;11.630;2023-12-20T11:09:31;95597.44;;;5.07;79.85
83104;BME280;72975;48.134;11.630;2023-12-20T11:12:44;95595.28;;;5.16;79.96
83104;BME280;72975;48.134;11.630;2023-12-20T11:15:19;95582.25;;;4.87;80.74
83104;BME280;72975;48.134;11.630;2023-12-20T11:17:55;95581.94;;;5.07;80.24
83104;BME280;72975;48.134;11.630;2023-12-20T11:20:24;95585.06;;;5.09;80.26
83104;BME280;72975;48.134;11.630;2023-12-20T11:23:03;95591.13;;;5.14;79.38
83104;BME280;72975;48.134;11.630;2023-12-20T11:26:03;95580.22;;;5.01;80.01
83104;BME280;72975;48.134;11.630;2023-12-20T11:28:31;95575.41;;;4.93;80.21
83104;BME280;72975;48.134;11.630;2023-12-20T11:31:03;95571.91;;;5.10;79.81
83104;BME280;72975;48.134;11.630;2023-12-20T11:33:42;95573.81;;;5.03;80.02
83104;BME280;72975;48.134;11.630;2023-12-20T11:36:19;95576.41;;;5.15;79.73
83104;BME280;72975;48.134;11.630;2023-12-20T11:38:56;95578.09;;;5.09;79.54
83104;BME280;72975;48.134;11.630;2023-12-20T11:41:27;95564.69;;;5.12;79.60
83104;BME280;72975;48.134;11.630;2023-12-20T11:43:56;95568.44;;;5.05;79.91
83104;BME280;72975;48.134;11.630;2023-12-20T11:46:24;95570.53;;;5.20;79.39
83104;BME280;72975;48.134;11.630;2023-12-20T11:48:51;95566.41;;;5.19;79.32
83104;BME280;72975;48.134;11.630;2023-12-20T11:51:20;95556.06;;;5.19;78.63
83104;BME280;72975;48.134;11.630;2023-12-20T11:53:52;95553.66;;;5.29;79.06
83104;BME280;72975;48.134;11.630;2023-12-20T11:56:23;95553.91;;;5.16;79.13
83104;BME280;72975;48.134;11.630;2023-12-20T11:58:53;95554.69;;;5.28;78.75
83104;BME280;72975;48.134;11.630;2023-12-20T12:01:23;95550.38;;;5.33;78.35
83104;BME280;72975;48.134;11.630;2023-12-20T12:04:08;95546.44;;;5.31;77.85
83104;BME280;72975;48.134;11.630;2023-12-20T12:06:49;95547.22;;;5.31;77.42
83104;BME280;72975;48.134;11.630;2023-12-20T12:09:17;95540.72;;;5.29;77.36
83104;BME280;72975;48.134;11.630;2023-12-20T12:11:49;95535.63;;;5.34;77.20
83104;BME280;72975;48.134;11.630;2023-12-20T12:14:20;95538.03;;;5.52;77.09
83104;BME280;72975;48.134;11.630;2023-12-20T12:16:50;95537.78;;;5.37;76.61
83104;BME280;72975;48.134;11.630;2023-12-20T12:19:25;95537.75;;;5.48;76.93
83104;BME280;72975;48.134;11.630;2023-12-20T12:22:23;95531.78;;;5.48;76.11
83104;BME280;72975;48.134;11.630;2023-12-20T12:24:58;95533.44;;;5.54;76.34
83104;BME280;72975;48.134;11.630;2023-12-20T12:27:32;95528.41;;;5.47;75.42
83104;BME280;72975;48.134;11.630;2023-12-20T12:30:11;95523.19;;;5.59;74.54
83104;BME280;72975;48.134;11.630;2023-12-20T12:32:41;95534.44;;;5.53;74.72
83104;BME280;72975;48.134;11.630;2023-12-20T12:35:13;95518.78;;;5.60;75.14
83104;BME280;72975;48.134;11.630;2023-12-20T12:37:45;95520.19;;;5.50;75.26
83104;BME280;72975;48.134;11.630;2023-12-20T12:40:17;95503.94;;;5.55;75.26
83104;BME280;72975;48.134;11.630;2023-12-20T12:42:49;95508.44;;;5.60;75.41
83104;BME280;72975;48.134;11.630;2023-12-20T12:45:17;95501.06;;;5.52;75.67
83104;BME280;72975;48.134;11.630;2023-12-20T12:47:46;95500.56;;;5.55;75.44
83104;BME280;72975;48.134;11.630;2023-12-20T12:50:19;95503.94;;;5.55;75.74
83104;BME280;72975;48.134;11.630;2023-12-20T12:52:55;95500.00;;;5.53;75.80
83104;BME280;72975;48.134;11.630;2023-12-20T12:55:28;95511.94;;;5.54;75.49
83104;BME280;72975;48.134;11.630;2023-12-20T12:58:01;95497.41;;;5.24;76.41
83104;BME280;72975;48.134;11.630;2023-12-20T13:00:43;95504.47;;;5.40;76.50
83104;BME280;72975;48.134;11.630;2023-12-20T13:03:12;95507.25;;;5.50;76.45
83104;BME280;72975;48.134;11.630;2023-12-20T13:05:58;95512.47;;;5.39;77.08
83104;BME280;72975;48.134;11.630;2023-12-20T13:08:30;95508.25;;;5.49;76.56
83104;BME280;72975;48.134;11.630;2023-12-20T13:10:58;95511.53;;;5.45;77.09
83104;BME280;72975;48.134;11.630;2023-12-20T13:13:29;95507.47;;;5.49;76.83
83104;BME280;72975;48.134;11.630;2023-12-20T13:15:58;95518.94;;;5.13;77.27
83104;BME280;72975;48.134;11.630;2023-12-20T13:18:35;95530.78;;;4.97;77.93